• Join FlightAware (Why Join?)
  • Login
  • US Flag 
01:57AM EST


 

Airport Tracker/Info


-or-


 

Live Flight TrackerFlight Track Log ✈ FLG4222 ✈ 04-Oct-2013 ✈ KBGM - KDTW

Flight Track Log - Related Links

Times and Time Zones

All times are in EDT time to prevent confusion due to time zone crossing. See the FLG4222 flight status page for this flight to view local times or setup timezone preferences in your user account.

Time Position Orientation Groundspeed Altitude Reporting Facility
EDT Latitude Longitude Course Direction KTS MPH feet Rate Location/Type
01:22PM 42.2472 -76.0539 289° West 210 242 3,900  Level New York Center
01:23PM 42.2725 -76.1372 292° West 228 262 6,600 2,579 Climbing New York Center
01:24PM 42.2914 -76.2286 286° West 248 285 9,100 2,311 Climbing New York Center
01:25PM 42.3125 -76.3117 289° West 260 299 11,300 1,680 Climbing New York Center
01:26PM 42.3567 -76.4808 290° West 314 361 13,300 1,510 Climbing Cleveland Center
01:27PM 42.2267 -76.5880 289° West  Level Estimated
01:27PM 42.3811 -76.5986 286° West 325 374 15,100  Level Cleveland Center
01:28PM 42.4169 -76.7125 293° West 328 377 16,900 1,403 Climbing Cleveland Center
01:30PM 42.4556 -76.8242 295° West 329 379 18,000 1,258 Climbing Cleveland Center
01:31PM 42.5053 -76.9603 296° West 336 387 19,500 1,296 Climbing Cleveland Center
01:32PM 42.5439 -77.0817 293° West 349 402 20,700 1,008 Climbing Cleveland Center
01:33PM 42.5836 -77.2022 294° West 351 404 21,600 919 Climbing Cleveland Center
01:34PM 42.6278 -77.3231 296° West 357 411 22,600 871 Climbing Cleveland Center
01:35PM 42.6461 -77.4675 280° West 366 421 23,400 774 Climbing Cleveland Center
01:36PM 42.6531 -77.6050 274° West 365 420 24,200 774 Climbing Cleveland Center
01:37PM 42.6597 -77.7469 274° West 374 430 25,000 774 Climbing Cleveland Center
01:38PM 42.6558 -77.8869 268° West 372 428 25,800 484 Climbing Cleveland Center
01:39PM 42.6464 -78.0286 265° West 376 433 26,000 97 Climbing Cleveland Center
01:40PM 42.6511 -78.2078 272° West 395 455 26,000  Level Cleveland Center
01:41PM 42.6558 -78.3600 272° West 401 461 26,000  Level Cleveland Center
01:42PM 42.6606 -78.5142 272° West 407 468 26,000  Level Cleveland Center
01:43PM 42.6658 -78.6733 273° West 420 483 26,000  Level Cleveland Center
01:44PM 42.6700 -78.8306 272° West 417 480 26,000  Level Cleveland Center
01:45PM 42.6753 -79.0178 272° West 416 479 26,000  Level Cleveland Center
01:46PM 42.6792 -79.1644 272° West 389 448 26,000  Level Cleveland Center
01:47PM 42.6458 -79.2908 250° West 384 442 26,000  Level Cleveland Center
01:48PM 42.5636 -79.3856 220° Southwest 388 447 26,000  Level Cleveland Center
01:49PM 42.4775 -79.4794 219° Southwest 397 457 26,000  Level Cleveland Center
01:50PM 42.4722 -79.6136 267° West 399 459 26,000  Level Cleveland Center
01:51PM 42.5606 -79.7517 311° West 405 466 26,000  Level Cleveland Center
01:52PM 42.5781 -79.8983 279° West 396 456 26,000  Level Cleveland Center
01:53PM 42.5964 -80.0500 279° West 392 451 26,000  Level Cleveland Center
01:54PM 42.6172 -80.1956 281° West 388 447 26,000  Level Cleveland Center
01:55PM 42.6358 -80.3417 280° West 390 449 26,000  Level Cleveland Center
01:56PM 42.6544 -80.4861 280° West 387 445 26,000  Level Cleveland Center
01:57PM 42.6731 -80.6294 280° West 383 441 26,000  Level Cleveland Center
01:59PM 42.6917 -80.7761 280° West 391 450 26,000 -528 Level Cleveland Center
02:00PM 42.7133 -80.9464 280° West 391 450 24,900 -960 Descending Cleveland Center
02:01PM 42.7192 -81.0864 273° West 376 433 24,000 -432 Descending Cleveland Center
02:02PM 42.7008 -81.2261 260° West 375 432 24,000 -288 Level Cleveland Center
02:03PM 42.6811 -81.3667 259° West 376 433 23,400 -774 Descending Cleveland Center
02:04PM 42.6614 -81.5078 259° West 378 435 22,400 -1,065 Descending Cleveland Center
02:05PM 42.6389 -81.6653 259° West 364 419 21,200 -1,065 Descending Cleveland Center
02:06PM 42.6186 -81.7975 258° West 360 414 20,200 -968 Descending Cleveland Center
02:07PM 42.5997 -81.9311 259° West 362 417 19,200 -968 Descending Cleveland Center
02:08PM 42.5803 -82.0592 258° West 351 404 18,200 -1,452 Descending Cleveland Center
02:09PM 42.5622 -82.1853 259° West 344 396 16,200 -2,060 Descending Cleveland Center
02:09PM 42.5603 -82.2108 264° West 341 392 15,900 -1,452 Descending Cleveland Center
02:10PM 42.5431 -82.3058 256° West 333 383 14,700 -1,425 Descending Cleveland Center
02:10PM 42.5350 -82.3689 260° West 326 375 14,000 -1,548 Descending Cleveland Center
02:11PM 42.5219 -82.4458 257° West 322 371 13,100 -1,433 Descending Cleveland Center
02:11PM 42.5153 -82.4994 260° West 290 334 12,400 -1,065 Descending Cleveland Center
02:12PM 42.5056 -82.5514 256° West 298 343 12,000 -490 Descending Cleveland Center
02:12PM 42.4950 -82.5789 243° Southwest 260 299 12,000 -581 Level Cleveland Center
02:13PM 42.4747 -82.6333 243° Southwest 251 289 11,400 -984 Descending Cleveland Center
02:13PM 42.4642 -82.6597 242° Southwest 235 270 11,000 -952 Descending Cleveland Center
02:14PM 42.4378 -82.7047 232° Southwest 236 272 10,400 -882 Descending Cleveland Center
02:14PM 42.4211 -82.7361 234° Southwest 235 270 10,000 -1,161 Descending Cleveland Center
02:15PM 42.3969 -82.7742 229° Southwest 234 269 9,200 -1,200 Descending Cleveland Center
02:15PM 42.3972 -82.8036 271° West 225 259 8,900 -1,161 Descending Cleveland Center
02:16PM 42.4175 -82.8453 303° West 223 257 8,000 -1,254 Descending Cleveland Center
02:16PM 42.4381 -82.8767 312° West 218 251 7,500 -968 Descending Cleveland Center
02:17PM 42.4608 -82.9231 304° West 217 250 7,000 -484 Descending Cleveland Center
02:17PM 42.4686 -82.9458 295° West 211 243 7,000 -484 Level Cleveland Center
02:18PM 42.4800 -82.9997 286° West 217 250 6,500 -689 Descending Cleveland Center
02:18PM 42.4875 -83.0278 290° West 217 250 6,300 -484 Descending Cleveland Center
02:19PM 42.4978 -83.0747 287° West 215 247 6,000 -295 Descending Cleveland Center
02:19PM 42.4969 -83.0997 267° West 171 197 6,000  Level Cleveland Center
02:20PM 42.4797 -83.1300 232° Southwest 173 199 6,000  Level Cleveland Center
02:20PM 42.4722 -83.1472 239° Southwest 175 201 6,000 -387 Level Cleveland Center
02:21PM 42.4392 -83.1697 207° Southwest 184 212 5,600 -716 Descending Cleveland Center
02:22PM 42.4211 -83.1856 213° Southwest 180 207 5,200 -1,120 Descending Cleveland Center
02:23PM 42.3769 -83.2161 207° Southwest 176 203 4,200 -982 Descending Cleveland Center
02:23PM 42.3439 -83.2406 209° Southwest 177 204 3,400 -964 Descending Cleveland Center
02:23PM 42.3369 -83.2472 215° Southwest 189 217 3,300 -968 Descending Cleveland Center
02:24PM 42.2981 -83.2736 207° Southwest 183 211 2,400 -984 Descending Cleveland Center
02:24PM 42.2925 -83.2806 223° Southwest 173 199 2,300 -774 Descending Cleveland Center
02:25PM 42.2608 -83.3014 206° Southwest 158 182 1,600 -716 Descending Cleveland Center
02:26PM 42.2525 -83.3089 214° Southwest 140 161 1,500 -677 Descending Cleveland Center
02:26PM 42.2272 -83.3278 209° Southwest 145 167 900 -750 Descending Cleveland Center
02:27PM 42.2214 -83.3325 211° Southwest 138 159 800 -1,200 Descending Cleveland Center
02:29PM 42.2000 -83.3500 213° Southwest  Level FlightAware Approximate
02:36PM 42.2124 -83.3534 213° Southwest  Level Estimated